sensor_id;sensor_type;location;lat;lon;timestamp;P1;durP1;ratioP1;P2;durP2;ratioP2
51907;SDS011;39320;53.214;6.556;2023-06-10T00:01:29;5.03;;;2.22;;
51907;SDS011;39320;53.214;6.556;2023-06-10T00:03:55;3.42;;;2.22;;
51907;SDS011;39320;53.214;6.556;2023-06-10T00:06:21;3.60;;;2.20;;
51907;SDS011;39320;53.214;6.556;2023-06-10T00:08:49;3.00;;;2.22;;
51907;SDS011;39320;53.214;6.556;2023-06-10T00:11:16;4.00;;;2.53;;
51907;SDS011;39320;53.214;6.556;2023-06-10T00:13:42;4.18;;;2.80;;
51907;SDS011;39320;53.214;6.556;2023-06-10T00:16:08;5.15;;;2.65;;
51907;SDS011;39320;53.214;6.556;2023-06-10T00:18:34;3.95;;;2.30;;
51907;SDS011;39320;53.214;6.556;2023-06-10T00:21:02;4.07;;;2.15;;
51907;SDS011;39320;53.214;6.556;2023-06-10T00:23:30;3.70;;;2.33;;
51907;SDS011;39320;53.214;6.556;2023-06-10T00:26:03;4.18;;;2.47;;
51907;SDS011;39320;53.214;6.556;2023-06-10T00:28:30;2.50;;;2.13;;
51907;SDS011;39320;53.214;6.556;2023-06-10T00:30:55;4.78;;;2.72;;
51907;SDS011;39320;53.214;6.556;2023-06-10T00:33:22;3.00;;;2.70;;
51907;SDS011;39320;53.214;6.556;2023-06-10T00:35:48;4.88;;;2.75;;
51907;SDS011;39320;53.214;6.556;2023-06-10T00:38:14;6.97;;;2.65;;
51907;SDS011;39320;53.214;6.556;2023-06-10T00:40:40;2.63;;;1.83;;
51907;SDS011;39320;53.214;6.556;2023-06-10T00:43:07;3.63;;;2.17;;
51907;SDS011;39320;53.214;6.556;2023-06-10T00:45:33;3.75;;;2.40;;
51907;SDS011;39320;53.214;6.556;2023-06-10T00:47:59;4.78;;;2.50;;
51907;SDS011;39320;53.214;6.556;2023-06-10T00:50:26;3.92;;;2.72;;
51907;SDS011;39320;53.214;6.556;2023-06-10T00:52:53;3.63;;;2.25;;
51907;SDS011;39320;53.214;6.556;2023-06-10T00:55:20;3.20;;;2.58;;
51907;SDS011;39320;53.214;6.556;2023-06-10T00:57:46;2.95;;;1.90;;
51907;SDS011;39320;53.214;6.556;2023-06-10T01:00:13;3.75;;;2.40;;
51907;SDS011;39320;53.214;6.556;2023-06-10T01:02:40;4.43;;;2.28;;
51907;SDS011;39320;53.214;6.556;2023-06-10T01:05:06;3.00;;;2.40;;
51907;SDS011;39320;53.214;6.556;2023-06-10T01:07:47;3.00;;;2.67;;
51907;SDS011;39320;53.214;6.556;2023-06-10T01:10:50;3.75;;;2.30;;
51907;SDS011;39320;53.214;6.556;2023-06-10T01:13:20;2.63;;;2.25;;
51907;SDS011;39320;53.214;6.556;2023-06-10T01:15:49;3.58;;;2.45;;
51907;SDS011;39320;53.214;6.556;2023-06-10T01:18:16;3.80;;;2.30;;
51907;SDS011;39320;53.214;6.556;2023-06-10T01:20:42;4.65;;;2.40;;
51907;SDS011;39320;53.214;6.556;2023-06-10T01:23:12;2.40;;;1.88;;
51907;SDS011;39320;53.214;6.556;2023-06-10T01:25:40;4.15;;;2.30;;
51907;SDS011;39320;53.214;6.556;2023-06-10T01:28:24;3.53;;;2.42;;
51907;SDS011;39320;53.214;6.556;2023-06-10T01:33:37;3.53;;;2.30;;
51907;SDS011;39320;53.214;6.556;2023-06-10T01:36:07;4.68;;;2.17;;
51907;SDS011;39320;53.214;6.556;2023-06-10T01:38:36;4.72;;;2.95;;
51907;SDS011;39320;53.214;6.556;2023-06-10T01:41:07;3.15;;;2.20;;
51907;SDS011;39320;53.214;6.556;2023-06-10T01:43:34;3.53;;;2.17;;
51907;SDS011;39320;53.214;6.556;2023-06-10T01:46:03;3.75;;;2.90;;
51907;SDS011;39320;53.214;6.556;2023-06-10T01:48:29;4.47;;;2.60;;
51907;SDS011;39320;53.214;6.556;2023-06-10T01:50:55;3.65;;;2.55;;
51907;SDS011;39320;53.214;6.556;2023-06-10T01:53:23;3.75;;;2.63;;
51907;SDS011;39320;53.214;6.556;2023-06-10T01:55:49;4.65;;;2.13;;
51907;SDS011;39320;53.214;6.556;2023-06-10T01:58:15;3.90;;;2.17;;
51907;SDS011;39320;53.214;6.556;2023-06-10T02:00:41;4.25;;;2.50;;
51907;SDS011;39320;53.214;6.556;2023-06-10T02:03:07;4.03;;;2.22;;
51907;SDS011;39320;53.214;6.556;2023-06-10T02:05:33;2.63;;;2.17;;
51907;SDS011;39320;53.214;6.556;2023-06-10T02:07:58;3.15;;;2.10;;
51907;SDS011;39320;53.214;6.556;2023-06-10T02:10:24;4.03;;;2.25;;
51907;SDS011;39320;53.214;6.556;2023-06-10T02:12:50;3.50;;;2.10;;
51907;SDS011;39320;53.214;6.556;2023-06-10T02:15:16;3.40;;;2.65;;
51907;SDS011;39320;53.214;6.556;2023-06-10T02:17:42;3.78;;;2.45;;
51907;SDS011;39320;53.214;6.556;2023-06-10T02:20:07;3.97;;;2.50;;
51907;SDS011;39320;53.214;6.556;2023-06-10T02:22:36;3.42;;;2.20;;
51907;SDS011;39320;53.214;6.556;2023-06-10T02:25:02;3.65;;;2.10;;
51907;SDS011;39320;53.214;6.556;2023-06-10T02:27:29;6.47;;;2.67;;
51907;SDS011;39320;53.214;6.556;2023-06-10T02:29:55;3.25;;;2.58;;
51907;SDS011;39320;53.214;6.556;2023-06-10T02:32:21;3.63;;;2.60;;
51907;SDS011;39320;53.214;6.556;2023-06-10T02:34:47;3.60;;;2.03;;
51907;SDS011;39320;53.214;6.556;2023-06-10T02:37:16;3.17;;;1.83;;
51907;SDS011;39320;53.214;6.556;2023-06-10T02:39:42;4.57;;;2.28;;
51907;SDS011;39320;53.214;6.556;2023-06-10T02:42:08;3.15;;;2.40;;
51907;SDS011;39320;53.214;6.556;2023-06-10T02:44:35;2.28;;;1.90;;
51907;SDS011;39320;53.214;6.556;2023-06-10T02:47:01;3.30;;;2.42;;
51907;SDS011;39320;53.214;6.556;2023-06-10T02:49:26;3.10;;;2.05;;
51907;SDS011;39320;53.214;6.556;2023-06-10T02:51:55;2.85;;;2.00;;
51907;SDS011;39320;53.214;6.556;2023-06-10T02:54:25;3.20;;;1.98;;
51907;SDS011;39320;53.214;6.556;2023-06-10T02:56:51;3.60;;;1.90;;
51907;SDS011;39320;53.214;6.556;2023-06-10T02:59:17;2.85;;;2.10;;
51907;SDS011;39320;53.214;6.556;2023-06-10T03:01:44;5.57;;;1.98;;
51907;SDS011;39320;53.214;6.556;2023-06-10T03:04:10;4.60;;;2.08;;
51907;SDS011;39320;53.214;6.556;2023-06-10T03:06:38;3.83;;;2.17;;
51907;SDS011;39320;53.214;6.556;2023-06-10T03:09:06;4.05;;;2.22;;
51907;SDS011;39320;53.214;6.556;2023-06-10T03:11:35;4.35;;;2.03;;
51907;SDS011;39320;53.214;6.556;2023-06-10T03:14:01;4.72;;;1.88;;
51907;SDS011;39320;53.214;6.556;2023-06-10T03:16:27;3.88;;;2.20;;
51907;SDS011;39320;53.214;6.556;2023-06-10T03:18:53;3.65;;;2.33;;
51907;SDS011;39320;53.214;6.556;2023-06-10T03:21:18;4.80;;;2.40;;
51907;SDS011;39320;53.214;6.556;2023-06-10T03:23:44;4.63;;;2.58;;
51907;SDS011;39320;53.214;6.556;2023-06-10T03:26:10;3.35;;;2.13;;
51907;SDS011;39320;53.214;6.556;2023-06-10T03:28:39;3.22;;;2.30;;
51907;SDS011;39320;53.214;6.556;2023-06-10T03:31:05;4.78;;;1.95;;
51907;SDS011;39320;53.214;6.556;2023-06-10T03:33:31;5.28;;;2.70;;
51907;SDS011;39320;53.214;6.556;2023-06-10T03:35:57;5.20;;;2.30;;
51907;SDS011;39320;53.214;6.556;2023-06-10T03:38:23;3.15;;;2.38;;
51907;SDS011;39320;53.214;6.556;2023-06-10T03:40:49;3.55;;;2.22;;
51907;SDS011;39320;53.214;6.556;2023-06-10T03:43:15;3.40;;;2.30;;
51907;SDS011;39320;53.214;6.556;2023-06-10T03:45:40;3.35;;;2.28;;
51907;SDS011;39320;53.214;6.556;2023-06-10T03:48:06;3.55;;;2.50;;
51907;SDS011;39320;53.214;6.556;2023-06-10T03:50:33;3.88;;;2.22;;
51907;SDS011;39320;53.214;6.556;2023-06-10T03:52:59;4.43;;;2.67;;
51907;SDS011;39320;53.214;6.556;2023-06-10T03:55:25;5.38;;;2.55;;
51907;SDS011;39320;53.214;6.556;2023-06-10T03:57:51;4.63;;;2.40;;
51907;SDS011;39320;53.214;6.556;2023-06-10T04:00:17;3.90;;;2.65;;
51907;SDS011;39320;53.214;6.556;2023-06-10T04:02:46;4.07;;;2.50;;
51907;SDS011;39320;53.214;6.556;2023-06-10T04:05:13;3.78;;;2.50;;
51907;SDS011;39320;53.214;6.556;2023-06-10T04:07:40;4.50;;;2.50;;
51907;SDS011;39320;53.214;6.556;2023-06-10T04:10:08;4.65;;;2.80;;
51907;SDS011;39320;53.214;6.556;2023-06-10T04:12:36;4.82;;;2.70;;
51907;SDS011;39320;53.214;6.556;2023-06-10T04:15:04;4.97;;;2.70;;
51907;SDS011;39320;53.214;6.556;2023-06-10T04:17:30;5.22;;;3.22;;
51907;SDS011;39320;53.214;6.556;2023-06-10T04:19:56;3.95;;;2.80;;
51907;SDS011;39320;53.214;6.556;2023-06-10T04:22:23;7.57;;;3.55;;
51907;SDS011;39320;53.214;6.556;2023-06-10T04:24:49;3.75;;;2.67;;
51907;SDS011;39320;53.214;6.556;2023-06-10T04:27:14;4.47;;;2.97;;
51907;SDS011;39320;53.214;6.556;2023-06-10T04:29:40;5.30;;;3.00;;
51907;SDS011;39320;53.214;6.556;2023-06-10T04:32:06;5.35;;;2.80;;
51907;SDS011;39320;53.214;6.556;2023-06-10T04:34:32;3.45;;;3.00;;
51907;SDS011;39320;53.214;6.556;2023-06-10T04:36:59;4.20;;;2.85;;
51907;SDS011;39320;53.214;6.556;2023-06-10T04:39:24;3.53;;;2.72;;
51907;SDS011;39320;53.214;6.556;2023-06-10T04:41:51;4.45;;;3.30;;
51907;SDS011;39320;53.214;6.556;2023-06-10T04:44:17;4.85;;;3.17;;
51907;SDS011;39320;53.214;6.556;2023-06-10T04:46:43;3.88;;;3.10;;
51907;SDS011;39320;53.214;6.556;2023-06-10T04:49:10;4.90;;;3.30;;
51907;SDS011;39320;53.214;6.556;2023-06-10T04:51:36;6.32;;;3.50;;
51907;SDS011;39320;53.214;6.556;2023-06-10T04:54:02;5.45;;;3.10;;
51907;SDS011;39320;53.214;6.556;2023-06-10T04:56:29;5.53;;;3.53;;
51907;SDS011;39320;53.214;6.556;2023-06-10T04:58:56;6.05;;;3.40;;
51907;SDS011;39320;53.214;6.556;2023-06-10T05:01:22;4.47;;;3.10;;
51907;SDS011;39320;53.214;6.556;2023-06-10T05:03:48;4.50;;;3.42;;
51907;SDS011;39320;53.214;6.556;2023-06-10T05:06:14;7.15;;;3.15;;
51907;SDS011;39320;53.214;6.556;2023-06-10T05:08:39;3.83;;;2.90;;
51907;SDS011;39320;53.214;6.556;2023-06-10T05:11:05;5.20;;;2.70;;
51907;SDS011;39320;53.214;6.556;2023-06-10T05:13:31;5.55;;;3.30;;
51907;SDS011;39320;53.214;6.556;2023-06-10T05:15:57;4.20;;;3.08;;
51907;SDS011;39320;53.214;6.556;2023-06-10T05:18:23;5.50;;;2.88;;
51907;SDS011;39320;53.214;6.556;2023-06-10T05:20:49;4.57;;;3.10;;
51907;SDS011;39320;53.214;6.556;2023-06-10T05:23:15;3.60;;;2.85;;
51907;SDS011;39320;53.214;6.556;2023-06-10T05:25:40;5.25;;;3.20;;
51907;SDS011;39320;53.214;6.556;2023-06-10T05:28:07;4.72;;;3.17;;
51907;SDS011;39320;53.214;6.556;2023-06-10T05:30:35;3.83;;;2.80;;
51907;SDS011;39320;53.214;6.556;2023-06-10T05:33:01;4.93;;;3.00;;
51907;SDS011;39320;53.214;6.556;2023-06-10T05:35:28;4.85;;;3.47;;
51907;SDS011;39320;53.214;6.556;2023-06-10T05:37:53;4.93;;;2.92;;
51907;SDS011;39320;53.214;6.556;2023-06-10T05:40:19;3.92;;;3.38;;
51907;SDS011;39320;53.214;6.556;2023-06-10T05:42:45;4.25;;;2.50;;
51907;SDS011;39320;53.214;6.556;2023-06-10T05:45:11;4.85;;;3.38;;
51907;SDS011;39320;53.214;6.556;2023-06-10T05:47:38;5.30;;;3.35;;
51907;SDS011;39320;53.214;6.556;2023-06-10T05:50:04;4.88;;;3.10;;
51907;SDS011;39320;53.214;6.556;2023-06-10T05:52:34;5.15;;;3.30;;
51907;SDS011;39320;53.214;6.556;2023-06-10T05:55:00;6.07;;;2.97;;
51907;SDS011;39320;53.214;6.556;2023-06-10T05:57:26;4.95;;;3.08;;
51907;SDS011;39320;53.214;6.556;2023-06-10T05:59:52;4.22;;;2.80;;
51907;SDS011;39320;53.214;6.556;2023-06-10T06:02:17;4.00;;;2.70;;
51907;SDS011;39320;53.214;6.556;2023-06-10T06:04:43;6.60;;;3.63;;
51907;SDS011;39320;53.214;6.556;2023-06-10T06:07:09;3.60;;;2.83;;
51907;SDS011;39320;53.214;6.556;2023-06-10T06:09:35;4.32;;;2.90;;
51907;SDS011;39320;53.214;6.556;2023-06-10T06:12:01;5.68;;;3.00;;
51907;SDS011;39320;53.214;6.556;2023-06-10T06:14:30;3.95;;;2.97;;
51907;SDS011;39320;53.214;6.556;2023-06-10T06:16:56;3.63;;;2.70;;
51907;SDS011;39320;53.214;6.556;2023-06-10T06:19:21;7.20;;;3.42;;
51907;SDS011;39320;53.214;6.556;2023-06-10T06:21:47;5.57;;;3.35;;
51907;SDS011;39320;53.214;6.556;2023-06-10T06:24:14;4.78;;;2.90;;
51907;SDS011;39320;53.214;6.556;2023-06-10T06:26:40;4.72;;;2.97;;
51907;SDS011;39320;53.214;6.556;2023-06-10T06:29:06;3.70;;;2.88;;
51907;SDS011;39320;53.214;6.556;2023-06-10T06:31:32;5.50;;;3.03;;
51907;SDS011;39320;53.214;6.556;2023-06-10T06:33:57;5.18;;;2.97;;
51907;SDS011;39320;53.214;6.556;2023-06-10T06:36:23;5.68;;;3.35;;
51907;SDS011;39320;53.214;6.556;2023-06-10T06:38:49;5.00;;;3.13;;
51907;SDS011;39320;53.214;6.556;2023-06-10T06:41:15;4.97;;;3.10;;
51907;SDS011;39320;53.214;6.556;2023-06-10T06:43:42;4.03;;;3.28;;
51907;SDS011;39320;53.214;6.556;2023-06-10T06:46:08;4.32;;;2.67;;
51907;SDS011;39320;53.214;6.556;2023-06-10T06:48:34;4.18;;;3.03;;
51907;SDS011;39320;53.214;6.556;2023-06-10T06:51:00;4.35;;;2.90;;
51907;SDS011;39320;53.214;6.556;2023-06-10T06:53:25;4.32;;;3.22;;
51907;SDS011;39320;53.214;6.556;2023-06-10T06:55:51;5.47;;;2.97;;
51907;SDS011;39320;53.214;6.556;2023-06-10T06:58:17;3.45;;;2.85;;
51907;SDS011;39320;53.214;6.556;2023-06-10T07:00:43;3.55;;;2.75;;
51907;SDS011;39320;53.214;6.556;2023-06-10T07:03:09;4.32;;;2.75;;
51907;SDS011;39320;53.214;6.556;2023-06-10T07:05:34;4.35;;;2.80;;
51907;SDS011;39320;53.214;6.556;2023-06-10T07:08:00;6.60;;;2.90;;
51907;SDS011;39320;53.214;6.556;2023-06-10T07:10:26;3.92;;;2.83;;
51907;SDS011;39320;53.214;6.556;2023-06-10T07:12:53;3.08;;;2.50;;
51907;SDS011;39320;53.214;6.556;2023-06-10T07:15:19;3.75;;;2.42;;
51907;SDS011;39320;53.214;6.556;2023-06-10T07:17:45;3.42;;;2.22;;
51907;SDS011;39320;53.214;6.556;2023-06-10T07:20:11;4.78;;;3.03;;
51907;SDS011;39320;53.214;6.556;2023-06-10T07:22:37;4.07;;;2.60;;
51907;SDS011;39320;53.214;6.556;2023-06-10T07:25:05;3.22;;;2.42;;
51907;SDS011;39320;53.214;6.556;2023-06-10T07:27:31;3.90;;;2.80;;
51907;SDS011;39320;53.214;6.556;2023-06-10T07:29:57;5.45;;;2.80;;
51907;SDS011;39320;53.214;6.556;2023-06-10T07:32:23;4.05;;;2.40;;
51907;SDS011;39320;53.214;6.556;2023-06-10T07:34:49;4.07;;;2.30;;
51907;SDS011;39320;53.214;6.556;2023-06-10T07:37:16;4.93;;;2.53;;
51907;SDS011;39320;53.214;6.556;2023-06-10T07:39:41;3.78;;;2.38;;
51907;SDS011;39320;53.214;6.556;2023-06-10T07:42:08;2.78;;;2.45;;
51907;SDS011;39320;53.214;6.556;2023-06-10T07:44:34;3.42;;;2.67;;
51907;SDS011;39320;53.214;6.556;2023-06-10T07:47:00;5.32;;;2.63;;
51907;SDS011;39320;53.214;6.556;2023-06-10T07:49:25;3.15;;;2.28;;
51907;SDS011;39320;53.214;6.556;2023-06-10T07:51:53;5.13;;;2.25;;
51907;SDS011;39320;53.214;6.556;2023-06-10T07:54:22;2.90;;;2.40;;
51907;SDS011;39320;53.214;6.556;2023-06-10T07:56:48;3.47;;;2.63;;
51907;SDS011;39320;53.214;6.556;2023-06-10T07:59:14;3.80;;;1.95;;
51907;SDS011;39320;53.214;6.556;2023-06-10T08:01:41;4.95;;;3.03;;
51907;SDS011;39320;53.214;6.556;2023-06-10T08:04:07;3.35;;;2.38;;
51907;SDS011;39320;53.214;6.556;2023-06-10T08:06:34;3.13;;;2.30;;
51907;SDS011;39320;53.214;6.556;2023-06-10T08:08:59;4.43;;;2.63;;
51907;SDS011;39320;53.214;6.556;2023-06-10T08:11:25;4.85;;;2.28;;
51907;SDS011;39320;53.214;6.556;2023-06-10T08:13:53;3.17;;;1.92;;
51907;SDS011;39320;53.214;6.556;2023-06-10T08:16:19;3.67;;;2.53;;
51907;SDS011;39320;53.214;6.556;2023-06-10T08:18:45;4.53;;;2.60;;
51907;SDS011;39320;53.214;6.556;2023-06-10T08:21:11;3.67;;;2.17;;
51907;SDS011;39320;53.214;6.556;2023-06-10T08:23:37;3.88;;;2.20;;
51907;SDS011;39320;53.214;6.556;2023-06-10T08:26:02;4.68;;;2.25;;
51907;SDS011;39320;53.214;6.556;2023-06-10T08:28:28;3.15;;;2.13;;
51907;SDS011;39320;53.214;6.556;2023-06-10T08:30:54;3.47;;;2.33;;
51907;SDS011;39320;53.214;6.556;2023-06-10T08:33:20;4.15;;;2.30;;
51907;SDS011;39320;53.214;6.556;2023-06-10T08:35:45;2.67;;;1.90;;
51907;SDS011;39320;53.214;6.556;2023-06-10T08:38:11;3.08;;;2.47;;
51907;SDS011;39320;53.214;6.556;2023-06-10T08:40:37;2.67;;;2.30;;
51907;SDS011;39320;53.214;6.556;2023-06-10T08:45:29;2.85;;;1.92;;
51907;SDS011;39320;53.214;6.556;2023-06-10T08:48:00;3.53;;;2.70;;
51907;SDS011;39320;53.214;6.556;2023-06-10T08:50:31;2.50;;;2.10;;
51907;SDS011;39320;53.214;6.556;2023-06-10T08:53:04;2.95;;;2.35;;
51907;SDS011;39320;53.214;6.556;2023-06-10T08:55:41;4.88;;;2.30;;
51907;SDS011;39320;53.214;6.556;2023-06-10T08:58:10;2.42;;;2.13;;
51907;SDS011;39320;53.214;6.556;2023-06-10T09:00:38;3.25;;;2.67;;
51907;SDS011;39320;53.214;6.556;2023-06-10T09:03:04;3.15;;;2.00;;
51907;SDS011;39320;53.214;6.556;2023-06-10T09:05:31;4.70;;;2.20;;
51907;SDS011;39320;53.214;6.556;2023-06-10T09:07:58;4.63;;;2.30;;
51907;SDS011;39320;53.214;6.556;2023-06-10T09:10:26;3.08;;;2.00;;
51907;SDS011;39320;53.214;6.556;2023-06-10T09:12:52;3.72;;;2.35;;
51907;SDS011;39320;53.214;6.556;2023-06-10T09:15:18;4.53;;;2.13;;
51907;SDS011;39320;53.214;6.556;2023-06-10T09:17:45;3.00;;;1.90;;
51907;SDS011;39320;53.214;6.556;2023-06-10T09:20:11;4.60;;;2.08;;
51907;SDS011;39320;53.214;6.556;2023-06-10T09:22:37;4.25;;;2.50;;
51907;SDS011;39320;53.214;6.556;2023-06-10T09:25:10;2.58;;;2.30;;
51907;SDS011;39320;53.214;6.556;2023-06-10T09:28:12;4.90;;;2.25;;
51907;SDS011;39320;53.214;6.556;2023-06-10T09:30:30;4.20;;;2.10;;
51907;SDS011;39320;53.214;6.556;2023-06-10T09:32:58;4.72;;;2.30;;
51907;SDS011;39320;53.214;6.556;2023-06-10T09:35:28;3.30;;;2.55;;
51907;SDS011;39320;53.214;6.556;2023-06-10T09:37:56;3.67;;;2.33;;
51907;SDS011;39320;53.214;6.556;2023-06-10T09:40:24;2.97;;;1.90;;
51907;SDS011;39320;53.214;6.556;2023-06-10T09:42:55;3.33;;;2.30;;
51907;SDS011;39320;53.214;6.556;2023-06-10T09:45:31;3.75;;;2.35;;
51907;SDS011;39320;53.214;6.556;2023-06-10T09:47:57;3.55;;;2.40;;
51907;SDS011;39320;53.214;6.556;2023-06-10T09:50:23;3.08;;;2.20;;
51907;SDS011;39320;53.214;6.556;2023-06-10T09:52:50;2.90;;;2.40;;
51907;SDS011;39320;53.214;6.556;2023-06-10T09:55:16;4.47;;;2.30;;
51907;SDS011;39320;53.214;6.556;2023-06-10T09:57:42;4.53;;;2.45;;
51907;SDS011;39320;53.214;6.556;2023-06-10T10:00:12;3.53;;;2.65;;
51907;SDS011;39320;53.214;6.556;2023-06-10T10:02:49;3.60;;;2.45;;
51907;SDS011;39320;53.214;6.556;2023-06-10T10:05:17;3.17;;;2.30;;
51907;SDS011;39320;53.214;6.556;2023-06-10T10:07:44;4.35;;;2.38;;
51907;SDS011;39320;53.214;6.556;2023-06-10T10:10:10;3.67;;;2.28;;
51907;SDS011;39320;53.214;6.556;2023-06-10T10:12:38;6.25;;;2.35;;
51907;SDS011;39320;53.214;6.556;2023-06-10T10:15:09;3.53;;;2.50;;
51907;SDS011;39320;53.214;6.556;2023-06-10T10:20:20;3.30;;;2.83;;
51907;SDS011;39320;53.214;6.556;2023-06-10T10:22:49;4.28;;;2.70;;
51907;SDS011;39320;53.214;6.556;2023-06-10T10:25:21;3.55;;;2.45;;
51907;SDS011;39320;53.214;6.556;2023-06-10T10:27:51;4.00;;;3.03;;
51907;SDS011;39320;53.214;6.556;2023-06-10T10:30:20;3.53;;;2.42;;
51907;SDS011;39320;53.214;6.556;2023-06-10T10:32:52;3.40;;;2.33;;
51907;SDS011;39320;53.214;6.556;2023-06-10T10:35:32;3.50;;;2.30;;
51907;SDS011;39320;53.214;6.556;2023-06-10T10:38:01;3.35;;;2.65;;
51907;SDS011;39320;53.214;6.556;2023-06-10T10:40:28;2.35;;;2.05;;
51907;SDS011;39320;53.214;6.556;2023-06-10T10:42:55;4.38;;;3.00;;
51907;SDS011;39320;53.214;6.556;2023-06-10T10:45:22;3.00;;;2.40;;
51907;SDS011;39320;53.214;6.556;2023-06-10T10:47:53;3.28;;;2.10;;
51907;SDS011;39320;53.214;6.556;2023-06-10T10:50:23;3.88;;;2.67;;
51907;SDS011;39320;53.214;6.556;2023-06-10T10:52:56;5.65;;;2.55;;
51907;SDS011;39320;53.214;6.556;2023-06-10T10:55:29;3.00;;;2.25;;
51907;SDS011;39320;53.214;6.556;2023-06-10T10:57:55;4.25;;;2.60;;
51907;SDS011;39320;53.214;6.556;2023-06-10T11:00:30;5.85;;;3.10;;
51907;SDS011;39320;53.214;6.556;2023-06-10T11:05:47;3.05;;;2.30;;
51907;SDS011;39320;53.214;6.556;2023-06-10T11:08:14;3.80;;;2.67;;
51907;SDS011;39320;53.214;6.556;2023-06-10T11:11:00;4.78;;;2.78;;
51907;SDS011;39320;53.214;6.556;2023-06-10T11:16:26;3.67;;;2.75;;
51907;SDS011;39320;53.214;6.556;2023-06-10T11:18:53;3.40;;;2.40;;
51907;SDS011;39320;53.214;6.556;2023-06-10T11:21:20;2.67;;;2.15;;
51907;SDS011;39320;53.214;6.556;2023-06-10T11:23:48;6.13;;;2.95;;
51907;SDS011;39320;53.214;6.556;2023-06-10T11:28:42;6.65;;;3.00;;
51907;SDS011;39320;53.214;6.556;2023-06-10T11:36:30;3.45;;;2.67;;
51907;SDS011;39320;53.214;6.556;2023-06-10T11:38:59;4.35;;;2.58;;
51907;SDS011;39320;53.214;6.556;2023-06-10T11:41:29;3.30;;;2.30;;
51907;SDS011;39320;53.214;6.556;2023-06-10T11:44:14;3.35;;;2.42;;
51907;SDS011;39320;53.214;6.556;2023-06-10T11:46:40;3.47;;;2.10;;
51907;SDS011;39320;53.214;6.556;2023-06-10T11:49:07;4.05;;;2.53;;
51907;SDS011;39320;53.214;6.556;2023-06-10T11:51:37;3.72;;;2.08;;
51907;SDS011;39320;53.214;6.556;2023-06-10T11:54:05;4.70;;;1.80;;
51907;SDS011;39320;53.214;6.556;2023-06-10T11:56:31;4.32;;;2.42;;
51907;SDS011;39320;53.214;6.556;2023-06-10T11:59:01;4.28;;;2.58;;
51907;SDS011;39320;53.214;6.556;2023-06-10T12:01:38;4.85;;;2.72;;
51907;SDS011;39320;53.214;6.556;2023-06-10T12:04:12;4.55;;;2.92;;
51907;SDS011;39320;53.214;6.556;2023-06-10T12:06:41;5.15;;;3.35;;
51907;SDS011;39320;53.214;6.556;2023-06-10T12:09:15;4.60;;;2.92;;
51907;SDS011;39320;53.214;6.556;2023-06-10T12:11:43;3.95;;;2.88;;
51907;SDS011;39320;53.214;6.556;2023-06-10T12:14:10;3.55;;;3.25;;
51907;SDS011;39320;53.214;6.556;2023-06-10T12:16:36;4.40;;;2.72;;
51907;SDS011;39320;53.214;6.556;2023-06-10T12:19:02;4.40;;;2.80;;
51907;SDS011;39320;53.214;6.556;2023-06-10T12:21:29;4.57;;;2.70;;
51907;SDS011;39320;53.214;6.556;2023-06-10T12:24:07;3.30;;;2.53;;
51907;SDS011;39320;53.214;6.556;2023-06-10T12:26:43;4.05;;;2.63;;
51907;SDS011;39320;53.214;6.556;2023-06-10T12:29:16;4.15;;;2.33;;
51907;SDS011;39320;53.214;6.556;2023-06-10T12:31:58;3.10;;;2.28;;
51907;SDS011;39320;53.214;6.556;2023-06-10T12:37:00;3.65;;;2.35;;
51907;SDS011;39320;53.214;6.556;2023-06-10T12:39:27;5.32;;;3.05;;
51907;SDS011;39320;53.214;6.556;2023-06-10T12:41:53;4.30;;;2.30;;
51907;SDS011;39320;53.214;6.556;2023-06-10T12:44:28;4.97;;;2.80;;
51907;SDS011;39320;53.214;6.556;2023-06-10T12:46:57;3.85;;;2.90;;
51907;SDS011;39320;53.214;6.556;2023-06-10T12:49:23;5.18;;;3.65;;
51907;SDS011;39320;53.214;6.556;2023-06-10T12:51:49;4.35;;;2.15;;
51907;SDS011;39320;53.214;6.556;2023-06-10T12:54:14;3.28;;;2.67;;
51907;SDS011;39320;53.214;6.556;2023-06-10T12:56:40;3.58;;;2.45;;
51907;SDS011;39320;53.214;6.556;2023-06-10T12:59:06;5.40;;;2.90;;
51907;SDS011;39320;53.214;6.556;2023-06-10T13:01:32;5.03;;;2.83;;
51907;SDS011;39320;53.214;6.556;2023-06-10T13:03:58;3.40;;;2.80;;
51907;SDS011;39320;53.214;6.556;2023-06-10T13:06:24;4.95;;;3.40;;
51907;SDS011;39320;53.214;6.556;2023-06-10T13:08:50;4.82;;;3.13;;
51907;SDS011;39320;53.214;6.556;2023-06-10T13:11:16;4.93;;;3.38;;
51907;SDS011;39320;53.214;6.556;2023-06-10T13:13:42;3.65;;;2.42;;
51907;SDS011;39320;53.214;6.556;2023-06-10T13:16:09;5.90;;;2.65;;
51907;SDS011;39320;53.214;6.556;2023-06-10T13:18:35;4.03;;;2.80;;
51907;SDS011;39320;53.214;6.556;2023-06-10T13:21:04;6.28;;;3.38;;
51907;SDS011;39320;53.214;6.556;2023-06-10T13:23:30;4.82;;;3.33;;
51907;SDS011;39320;53.214;6.556;2023-06-10T13:25:56;4.70;;;2.63;;
51907;SDS011;39320;53.214;6.556;2023-06-10T13:28:22;3.03;;;2.70;;
51907;SDS011;39320;53.214;6.556;2023-06-10T13:30:48;3.90;;;2.92;;
51907;SDS011;39320;53.214;6.556;2023-06-10T13:33:14;4.97;;;2.67;;
51907;SDS011;39320;53.214;6.556;2023-06-10T13:35:40;4.93;;;2.90;;
51907;SDS011;39320;53.214;6.556;2023-06-10T13:38:06;4.22;;;3.08;;
51907;SDS011;39320;53.214;6.556;2023-06-10T13:40:32;3.95;;;3.00;;
51907;SDS011;39320;53.214;6.556;2023-06-10T13:42:58;5.40;;;3.00;;
51907;SDS011;39320;53.214;6.556;2023-06-10T13:45:24;6.18;;;2.90;;
51907;SDS011;39320;53.214;6.556;2023-06-10T13:47:50;3.95;;;2.80;;
51907;SDS011;39320;53.214;6.556;2023-06-10T13:50:16;3.65;;;2.78;;
51907;SDS011;39320;53.214;6.556;2023-06-10T13:52:42;3.50;;;2.90;;
51907;SDS011;39320;53.214;6.556;2023-06-10T13:55:08;5.20;;;2.30;;
51907;SDS011;39320;53.214;6.556;2023-06-10T13:57:34;5.03;;;2.20;;
51907;SDS011;39320;53.214;6.556;2023-06-10T14:00:00;6.30;;;2.65;;
51907;SDS011;39320;53.214;6.556;2023-06-10T14:02:26;3.45;;;2.63;;
51907;SDS011;39320;53.214;6.556;2023-06-10T14:04:51;3.83;;;2.45;;
51907;SDS011;39320;53.214;6.556;2023-06-10T14:07:17;3.40;;;2.50;;
51907;SDS011;39320;53.214;6.556;2023-06-10T14:09:43;4.38;;;2.65;;
51907;SDS011;39320;53.214;6.556;2023-06-10T14:12:09;3.92;;;2.55;;
51907;SDS011;39320;53.214;6.556;2023-06-10T14:14:36;3.75;;;2.70;;
51907;SDS011;39320;53.214;6.556;2023-06-10T14:17:02;5.05;;;3.00;;
51907;SDS011;39320;53.214;6.556;2023-06-10T14:19:29;4.68;;;3.05;;
51907;SDS011;39320;53.214;6.556;2023-06-10T14:21:55;3.17;;;2.28;;
51907;SDS011;39320;53.214;6.556;2023-06-10T14:24:21;5.15;;;2.47;;
51907;SDS011;39320;53.214;6.556;2023-06-10T14:26:47;3.72;;;2.60;;
51907;SDS011;39320;53.214;6.556;2023-06-10T14:29:12;3.88;;;2.63;;
51907;SDS011;39320;53.214;6.556;2023-06-10T14:31:39;3.35;;;1.95;;
51907;SDS011;39320;53.214;6.556;2023-06-10T14:34:05;3.17;;;2.30;;
51907;SDS011;39320;53.214;6.556;2023-06-10T14:36:33;7.10;;;1.90;;
51907;SDS011;39320;53.214;6.556;2023-06-10T14:39:00;3.03;;;1.83;;
51907;SDS011;39320;53.214;6.556;2023-06-10T14:41:25;3.80;;;1.85;;
51907;SDS011;39320;53.214;6.556;2023-06-10T14:43:51;5.25;;;2.17;;
51907;SDS011;39320;53.214;6.556;2023-06-10T14:46:17;2.75;;;1.98;;
51907;SDS011;39320;53.214;6.556;2023-06-10T14:48:46;2.85;;;1.63;;
51907;SDS011;39320;53.214;6.556;2023-06-10T14:51:12;4.30;;;2.17;;
51907;SDS011;39320;53.214;6.556;2023-06-10T14:53:37;3.08;;;2.20;;
51907;SDS011;39320;53.214;6.556;2023-06-10T14:56:03;3.42;;;1.95;;
51907;SDS011;39320;53.214;6.556;2023-06-10T14:58:29;4.28;;;2.30;;
51907;SDS011;39320;53.214;6.556;2023-06-10T15:00:55;3.90;;;2.20;;
51907;SDS011;39320;53.214;6.556;2023-06-10T15:03:21;3.95;;;2.10;;
51907;SDS011;39320;53.214;6.556;2023-06-10T15:05:47;4.47;;;1.95;;
51907;SDS011;39320;53.214;6.556;2023-06-10T15:08:12;3.58;;;2.40;;
51907;SDS011;39320;53.214;6.556;2023-06-10T15:10:38;4.85;;;2.35;;
51907;SDS011;39320;53.214;6.556;2023-06-10T15:13:04;4.60;;;2.00;;